sensor_id;sensor_type;location;lat;lon;timestamp;P1;durP1;ratioP1;P2;durP2;ratioP2
58260;SDS011;44058;52.898;6.502;2022-10-20T00:00:28;5.53;;;4.60;;
58260;SDS011;44058;52.898;6.502;2022-10-20T00:02:54;9.23;;;3.90;;
58260;SDS011;44058;52.898;6.502;2022-10-20T00:05:20;7.68;;;4.50;;
58260;SDS011;44058;52.898;6.502;2022-10-20T00:07:45;7.07;;;4.20;;
58260;SDS011;44058;52.898;6.502;2022-10-20T00:10:11;5.28;;;4.28;;
58260;SDS011;44058;52.898;6.502;2022-10-20T00:12:37;5.97;;;4.35;;
58260;SDS011;44058;52.898;6.502;2022-10-20T00:15:02;6.65;;;3.78;;
58260;SDS011;44058;52.898;6.502;2022-10-20T00:17:28;5.75;;;3.88;;
58260;SDS011;44058;52.898;6.502;2022-10-20T00:19:54;5.38;;;4.07;;
58260;SDS011;44058;52.898;6.502;2022-10-20T00:22:20;7.88;;;4.63;;
58260;SDS011;44058;52.898;6.502;2022-10-20T00:24:45;8.70;;;4.38;;
58260;SDS011;44058;52.898;6.502;2022-10-20T00:27:11;7.60;;;4.13;;
58260;SDS011;44058;52.898;6.502;2022-10-20T00:29:37;6.30;;;3.90;;
58260;SDS011;44058;52.898;6.502;2022-10-20T00:32:04;6.18;;;4.22;;
58260;SDS011;44058;52.898;6.502;2022-10-20T00:34:30;7.05;;;4.50;;
58260;SDS011;44058;52.898;6.502;2022-10-20T00:36:56;7.07;;;4.20;;
58260;SDS011;44058;52.898;6.502;2022-10-20T00:39:22;6.20;;;3.85;;
58260;SDS011;44058;52.898;6.502;2022-10-20T00:41:49;5.78;;;4.00;;
58260;SDS011;44058;52.898;6.502;2022-10-20T00:47:13;4.88;;;4.03;;
58260;SDS011;44058;52.898;6.502;2022-10-20T00:49:43;6.15;;;4.00;;
58260;SDS011;44058;52.898;6.502;2022-10-20T00:52:10;6.82;;;4.53;;
58260;SDS011;44058;52.898;6.502;2022-10-20T00:54:36;6.70;;;3.72;;
58260;SDS011;44058;52.898;6.502;2022-10-20T00:57:02;5.22;;;3.88;;
58260;SDS011;44058;52.898;6.502;2022-10-20T00:59:30;9.25;;;4.53;;
58260;SDS011;44058;52.898;6.502;2022-10-20T01:01:59;6.50;;;4.57;;
58260;SDS011;44058;52.898;6.502;2022-10-20T01:04:30;6.32;;;4.22;;
58260;SDS011;44058;52.898;6.502;2022-10-20T01:06:56;7.53;;;4.43;;
58260;SDS011;44058;52.898;6.502;2022-10-20T01:09:22;6.75;;;4.00;;
58260;SDS011;44058;52.898;6.502;2022-10-20T01:12:33;7.63;;;4.18;;
58260;SDS011;44058;52.898;6.502;2022-10-20T01:14:48;6.57;;;4.78;;
58260;SDS011;44058;52.898;6.502;2022-10-20T01:17:28;5.32;;;3.85;;
58260;SDS011;44058;52.898;6.502;2022-10-20T01:20:05;5.85;;;4.25;;
58260;SDS011;44058;52.898;6.502;2022-10-20T01:34:32;9.68;;;4.72;;
58260;SDS011;44058;52.898;6.502;2022-10-20T01:37:03;5.30;;;4.53;;
58260;SDS011;44058;52.898;6.502;2022-10-20T01:40:11;5.72;;;4.55;;
58260;SDS011;44058;52.898;6.502;2022-10-20T01:43:10;5.85;;;4.03;;
58260;SDS011;44058;52.898;6.502;2022-10-20T01:45:40;9.18;;;4.63;;
58260;SDS011;44058;52.898;6.502;2022-10-20T01:48:09;7.30;;;4.43;;
58260;SDS011;44058;52.898;6.502;2022-10-20T01:50:37;5.50;;;4.50;;
58260;SDS011;44058;52.898;6.502;2022-10-20T01:53:05;7.55;;;4.90;;
58260;SDS011;44058;52.898;6.502;2022-10-20T01:55:31;7.10;;;4.53;;
58260;SDS011;44058;52.898;6.502;2022-10-20T01:58:09;8.48;;;3.80;;
58260;SDS011;44058;52.898;6.502;2022-10-20T02:00:49;4.90;;;3.70;;
58260;SDS011;44058;52.898;6.502;2022-10-20T02:03:27;6.07;;;4.45;;
58260;SDS011;44058;52.898;6.502;2022-10-20T02:12:04;8.18;;;5.18;;
58260;SDS011;44058;52.898;6.502;2022-10-20T02:14:16;7.68;;;4.72;;
58260;SDS011;44058;52.898;6.502;2022-10-20T02:16:45;6.03;;;4.57;;
58260;SDS011;44058;52.898;6.502;2022-10-20T02:19:24;7.75;;;5.10;;
58260;SDS011;44058;52.898;6.502;2022-10-20T02:21:55;7.90;;;5.68;;
58260;SDS011;44058;52.898;6.502;2022-10-20T02:24:23;8.15;;;4.68;;
58260;SDS011;44058;52.898;6.502;2022-10-20T02:26:53;7.88;;;5.30;;
58260;SDS011;44058;52.898;6.502;2022-10-20T02:29:24;7.43;;;5.07;;
58260;SDS011;44058;52.898;6.502;2022-10-20T02:31:58;7.88;;;4.80;;
58260;SDS011;44058;52.898;6.502;2022-10-20T02:34:25;7.07;;;4.88;;
58260;SDS011;44058;52.898;6.502;2022-10-20T02:36:53;6.88;;;5.03;;
58260;SDS011;44058;52.898;6.502;2022-10-20T02:39:21;8.77;;;5.40;;
58260;SDS011;44058;52.898;6.502;2022-10-20T02:41:47;6.68;;;4.88;;
58260;SDS011;44058;52.898;6.502;2022-10-20T02:44:13;5.70;;;5.13;;
58260;SDS011;44058;52.898;6.502;2022-10-20T02:46:38;6.38;;;4.38;;
58260;SDS011;44058;52.898;6.502;2022-10-20T02:49:04;9.68;;;5.10;;
58260;SDS011;44058;52.898;6.502;2022-10-20T02:51:30;8.20;;;4.55;;
58260;SDS011;44058;52.898;6.502;2022-10-20T02:53:56;7.15;;;4.78;;
58260;SDS011;44058;52.898;6.502;2022-10-20T02:56:22;5.60;;;5.03;;
58260;SDS011;44058;52.898;6.502;2022-10-20T02:58:48;7.28;;;5.10;;
58260;SDS011;44058;52.898;6.502;2022-10-20T03:01:13;7.85;;;5.88;;
58260;SDS011;44058;52.898;6.502;2022-10-20T03:03:40;8.27;;;5.70;;
58260;SDS011;44058;52.898;6.502;2022-10-20T03:06:08;7.40;;;5.70;;
58260;SDS011;44058;52.898;6.502;2022-10-20T03:08:36;8.30;;;6.18;;
58260;SDS011;44058;52.898;6.502;2022-10-20T03:11:03;6.88;;;5.07;;
58260;SDS011;44058;52.898;6.502;2022-10-20T03:13:29;6.35;;;5.43;;
58260;SDS011;44058;52.898;6.502;2022-10-20T03:15:55;7.18;;;6.03;;
58260;SDS011;44058;52.898;6.502;2022-10-20T03:18:21;7.85;;;6.00;;
58260;SDS011;44058;52.898;6.502;2022-10-20T03:20:49;6.75;;;5.85;;
58260;SDS011;44058;52.898;6.502;2022-10-20T03:23:18;6.78;;;6.07;;
58260;SDS011;44058;52.898;6.502;2022-10-20T03:25:44;7.68;;;6.10;;
58260;SDS011;44058;52.898;6.502;2022-10-20T03:28:10;7.97;;;6.30;;
58260;SDS011;44058;52.898;6.502;2022-10-20T03:30:36;10.45;;;6.18;;
58260;SDS011;44058;52.898;6.502;2022-10-20T03:33:01;7.20;;;6.30;;
58260;SDS011;44058;52.898;6.502;2022-10-20T03:35:27;8.32;;;6.90;;
58260;SDS011;44058;52.898;6.502;2022-10-20T03:37:54;8.52;;;6.75;;
58260;SDS011;44058;52.898;6.502;2022-10-20T03:40:19;6.50;;;5.90;;
58260;SDS011;44058;52.898;6.502;2022-10-20T03:42:45;7.70;;;6.88;;
58260;SDS011;44058;52.898;6.502;2022-10-20T03:45:11;7.93;;;7.13;;
58260;SDS011;44058;52.898;6.502;2022-10-20T03:47:37;8.38;;;7.38;;
58260;SDS011;44058;52.898;6.502;2022-10-20T03:50:03;8.13;;;7.32;;
58260;SDS011;44058;52.898;6.502;2022-10-20T03:52:29;9.27;;;7.55;;
58260;SDS011;44058;52.898;6.502;2022-10-20T03:54:56;8.10;;;7.30;;
58260;SDS011;44058;52.898;6.502;2022-10-20T03:57:21;8.35;;;7.22;;
58260;SDS011;44058;52.898;6.502;2022-10-20T03:59:47;7.85;;;7.10;;
58260;SDS011;44058;52.898;6.502;2022-10-20T04:02:21;8.38;;;7.57;;
58260;SDS011;44058;52.898;6.502;2022-10-20T04:04:47;9.10;;;6.63;;
58260;SDS011;44058;52.898;6.502;2022-10-20T04:07:15;9.23;;;8.30;;
58260;SDS011;44058;52.898;6.502;2022-10-20T04:09:40;9.00;;;8.10;;
58260;SDS011;44058;52.898;6.502;2022-10-20T04:12:06;8.77;;;7.85;;
58260;SDS011;44058;52.898;6.502;2022-10-20T04:14:32;9.85;;;8.07;;
58260;SDS011;44058;52.898;6.502;2022-10-20T04:16:57;9.00;;;8.15;;
58260;SDS011;44058;52.898;6.502;2022-10-20T04:19:23;9.20;;;8.23;;
58260;SDS011;44058;52.898;6.502;2022-10-20T04:21:49;10.98;;;8.93;;
58260;SDS011;44058;52.898;6.502;2022-10-20T04:24:15;8.25;;;7.40;;
58260;SDS011;44058;52.898;6.502;2022-10-20T04:26:41;9.88;;;8.93;;
58260;SDS011;44058;52.898;6.502;2022-10-20T04:29:07;9.50;;;8.60;;
58260;SDS011;44058;52.898;6.502;2022-10-20T04:31:32;10.07;;;9.15;;
58260;SDS011;44058;52.898;6.502;2022-10-20T04:33:58;10.07;;;9.07;;
58260;SDS011;44058;52.898;6.502;2022-10-20T04:36:24;10.07;;;9.18;;
58260;SDS011;44058;52.898;6.502;2022-10-20T04:38:51;9.85;;;8.55;;
58260;SDS011;44058;52.898;6.502;2022-10-20T04:41:17;9.57;;;8.52;;
58260;SDS011;44058;52.898;6.502;2022-10-20T04:43:43;10.25;;;9.25;;
58260;SDS011;44058;52.898;6.502;2022-10-20T04:46:14;10.32;;;9.30;;
58260;SDS011;44058;52.898;6.502;2022-10-20T04:48:41;9.02;;;8.25;;
58260;SDS011;44058;52.898;6.502;2022-10-20T04:51:09;12.27;;;10.38;;
58260;SDS011;44058;52.898;6.502;2022-10-20T04:53:37;10.13;;;9.23;;
58260;SDS011;44058;52.898;6.502;2022-10-20T04:56:04;10.90;;;9.88;;
58260;SDS011;44058;52.898;6.502;2022-10-20T04:58:32;10.80;;;9.85;;
58260;SDS011;44058;52.898;6.502;2022-10-20T05:01:03;11.48;;;10.25;;
58260;SDS011;44058;52.898;6.502;2022-10-20T05:03:30;11.18;;;10.13;;
58260;SDS011;44058;52.898;6.502;2022-10-20T05:06:57;11.05;;;9.95;;
58260;SDS011;44058;52.898;6.502;2022-10-20T05:08:55;11.25;;;10.15;;
58260;SDS011;44058;52.898;6.502;2022-10-20T05:11:24;11.68;;;10.40;;
58260;SDS011;44058;52.898;6.502;2022-10-20T05:13:51;11.55;;;10.40;;
58260;SDS011;44058;52.898;6.502;2022-10-20T05:16:17;11.55;;;10.48;;
58260;SDS011;44058;52.898;6.502;2022-10-20T05:18:43;12.75;;;10.77;;
58260;SDS011;44058;52.898;6.502;2022-10-20T05:21:17;11.55;;;10.43;;
58260;SDS011;44058;52.898;6.502;2022-10-20T05:23:44;10.73;;;9.60;;
58260;SDS011;44058;52.898;6.502;2022-10-20T05:26:12;12.80;;;11.48;;
58260;SDS011;44058;52.898;6.502;2022-10-20T05:28:41;10.50;;;9.40;;
58260;SDS011;44058;52.898;6.502;2022-10-20T05:31:09;10.43;;;9.43;;
58260;SDS011;44058;52.898;6.502;2022-10-20T05:33:35;11.70;;;10.57;;
58260;SDS011;44058;52.898;6.502;2022-10-20T05:36:07;12.40;;;11.20;;
58260;SDS011;44058;52.898;6.502;2022-10-20T05:38:34;12.02;;;10.75;;
58260;SDS011;44058;52.898;6.502;2022-10-20T05:41:06;11.38;;;10.38;;
58260;SDS011;44058;52.898;6.502;2022-10-20T05:43:31;12.10;;;10.85;;
58260;SDS011;44058;52.898;6.502;2022-10-20T05:45:57;12.10;;;11.00;;
58260;SDS011;44058;52.898;6.502;2022-10-20T05:48:23;12.82;;;11.52;;
58260;SDS011;44058;52.898;6.502;2022-10-20T05:50:49;12.45;;;11.27;;
58260;SDS011;44058;52.898;6.502;2022-10-20T05:53:16;13.20;;;12.07;;
58260;SDS011;44058;52.898;6.502;2022-10-20T05:55:42;13.13;;;11.88;;
58260;SDS011;44058;52.898;6.502;2022-10-20T05:58:07;13.13;;;11.55;;
58260;SDS011;44058;52.898;6.502;2022-10-20T06:00:33;15.77;;;11.57;;
58260;SDS011;44058;52.898;6.502;2022-10-20T06:03:06;13.73;;;12.43;;
58260;SDS011;44058;52.898;6.502;2022-10-20T06:05:33;14.18;;;12.85;;
58260;SDS011;44058;52.898;6.502;2022-10-20T06:07:59;14.77;;;12.68;;
58260;SDS011;44058;52.898;6.502;2022-10-20T06:10:25;13.15;;;11.93;;
58260;SDS011;44058;52.898;6.502;2022-10-20T06:12:50;14.68;;;13.20;;
58260;SDS011;44058;52.898;6.502;2022-10-20T06:15:16;14.80;;;13.43;;
58260;SDS011;44058;52.898;6.502;2022-10-20T06:17:43;15.05;;;13.48;;
58260;SDS011;44058;52.898;6.502;2022-10-20T06:20:11;13.45;;;12.13;;
58260;SDS011;44058;52.898;6.502;2022-10-20T06:22:36;14.13;;;12.70;;
58260;SDS011;44058;52.898;6.502;2022-10-20T06:25:03;13.80;;;12.40;;
58260;SDS011;44058;52.898;6.502;2022-10-20T06:27:32;13.73;;;12.37;;
58260;SDS011;44058;52.898;6.502;2022-10-20T06:29:57;14.30;;;13.10;;
58260;SDS011;44058;52.898;6.502;2022-10-20T06:32:23;14.38;;;13.05;;
58260;SDS011;44058;52.898;6.502;2022-10-20T06:34:49;14.38;;;12.98;;
58260;SDS011;44058;52.898;6.502;2022-10-20T06:37:15;15.15;;;13.80;;
58260;SDS011;44058;52.898;6.502;2022-10-20T06:39:40;15.50;;;13.88;;
58260;SDS011;44058;52.898;6.502;2022-10-20T06:42:07;14.95;;;13.60;;
58260;SDS011;44058;52.898;6.502;2022-10-20T06:44:32;13.95;;;12.77;;
58260;SDS011;44058;52.898;6.502;2022-10-20T06:46:58;15.82;;;14.27;;
58260;SDS011;44058;52.898;6.502;2022-10-20T06:49:24;14.70;;;13.40;;
58260;SDS011;44058;52.898;6.502;2022-10-20T06:51:52;14.75;;;13.50;;
58260;SDS011;44058;52.898;6.502;2022-10-20T06:54:18;14.50;;;13.10;;
58260;SDS011;44058;52.898;6.502;2022-10-20T06:56:44;13.82;;;12.52;;
58260;SDS011;44058;52.898;6.502;2022-10-20T06:59:10;15.52;;;14.02;;
58260;SDS011;44058;52.898;6.502;2022-10-20T07:01:36;14.68;;;13.40;;
58260;SDS011;44058;52.898;6.502;2022-10-20T07:04:07;14.55;;;13.30;;
58260;SDS011;44058;52.898;6.502;2022-10-20T07:06:39;14.43;;;13.10;;
58260;SDS011;44058;52.898;6.502;2022-10-20T07:09:07;14.57;;;13.07;;
58260;SDS011;44058;52.898;6.502;2022-10-20T07:11:36;15.35;;;13.93;;
58260;SDS011;44058;52.898;6.502;2022-10-20T07:14:03;15.05;;;13.65;;
58260;SDS011;44058;52.898;6.502;2022-10-20T07:16:29;13.45;;;12.25;;
58260;SDS011;44058;52.898;6.502;2022-10-20T07:18:57;14.25;;;13.00;;
58260;SDS011;44058;52.898;6.502;2022-10-20T07:21:25;15.18;;;13.85;;
58260;SDS011;44058;52.898;6.502;2022-10-20T07:23:52;14.77;;;13.32;;
58260;SDS011;44058;52.898;6.502;2022-10-20T07:26:27;14.90;;;13.60;;
58260;SDS011;44058;52.898;6.502;2022-10-20T07:28:55;14.23;;;12.93;;
58260;SDS011;44058;52.898;6.502;2022-10-20T07:31:29;13.63;;;12.23;;
58260;SDS011;44058;52.898;6.502;2022-10-20T07:34:00;19.50;;;13.18;;
58260;SDS011;44058;52.898;6.502;2022-10-20T07:36:28;14.45;;;13.02;;
58260;SDS011;44058;52.898;6.502;2022-10-20T07:38:56;13.95;;;12.82;;
58260;SDS011;44058;52.898;6.502;2022-10-20T07:41:24;13.52;;;12.40;;
58260;SDS011;44058;52.898;6.502;2022-10-20T07:43:53;13.13;;;12.05;;
58260;SDS011;44058;52.898;6.502;2022-10-20T07:46:20;13.10;;;11.90;;
58260;SDS011;44058;52.898;6.502;2022-10-20T07:48:46;15.43;;;14.02;;
58260;SDS011;44058;52.898;6.502;2022-10-20T07:53:52;14.57;;;13.15;;
58260;SDS011;44058;52.898;6.502;2022-10-20T07:56:20;13.83;;;12.53;;
58260;SDS011;44058;52.898;6.502;2022-10-20T07:58:46;15.43;;;14.10;;
58260;SDS011;44058;52.898;6.502;2022-10-20T08:01:16;13.68;;;12.38;;
58260;SDS011;44058;52.898;6.502;2022-10-20T08:03:42;14.50;;;12.93;;
58260;SDS011;44058;52.898;6.502;2022-10-20T08:06:08;13.82;;;12.50;;
58260;SDS011;44058;52.898;6.502;2022-10-20T08:08:33;14.48;;;12.23;;
58260;SDS011;44058;52.898;6.502;2022-10-20T08:11:02;13.18;;;12.10;;
58260;SDS011;44058;52.898;6.502;2022-10-20T08:13:28;13.95;;;12.55;;
58260;SDS011;44058;52.898;6.502;2022-10-20T08:15:56;12.90;;;11.60;;
58260;SDS011;44058;52.898;6.502;2022-10-20T08:18:22;12.05;;;10.93;;
58260;SDS011;44058;52.898;6.502;2022-10-20T08:20:48;11.90;;;10.80;;
58260;SDS011;44058;52.898;6.502;2022-10-20T08:23:14;12.70;;;11.43;;
58260;SDS011;44058;52.898;6.502;2022-10-20T08:25:44;12.27;;;11.00;;
58260;SDS011;44058;52.898;6.502;2022-10-20T08:28:10;13.10;;;11.60;;
58260;SDS011;44058;52.898;6.502;2022-10-20T08:30:36;11.93;;;10.82;;
58260;SDS011;44058;52.898;6.502;2022-10-20T08:33:07;13.00;;;11.88;;
58260;SDS011;44058;52.898;6.502;2022-10-20T08:35:34;11.32;;;10.23;;
58260;SDS011;44058;52.898;6.502;2022-10-20T08:38:00;12.23;;;11.00;;
58260;SDS011;44058;52.898;6.502;2022-10-20T08:40:28;11.02;;;10.02;;
58260;SDS011;44058;52.898;6.502;2022-10-20T08:42:55;11.48;;;10.48;;
58260;SDS011;44058;52.898;6.502;2022-10-20T08:45:23;11.27;;;10.27;;
58260;SDS011;44058;52.898;6.502;2022-10-20T08:47:52;11.88;;;10.70;;
58260;SDS011;44058;52.898;6.502;2022-10-20T08:50:20;11.65;;;10.55;;
58260;SDS011;44058;52.898;6.502;2022-10-20T08:52:52;11.43;;;10.30;;
58260;SDS011;44058;52.898;6.502;2022-10-20T08:55:27;10.15;;;9.15;;
58260;SDS011;44058;52.898;6.502;2022-10-20T08:58:04;11.60;;;9.35;;
58260;SDS011;44058;52.898;6.502;2022-10-20T09:00:37;11.65;;;10.50;;
58260;SDS011;44058;52.898;6.502;2022-10-20T09:03:14;10.57;;;8.88;;
58260;SDS011;44058;52.898;6.502;2022-10-20T09:05:53;10.35;;;9.38;;
58260;SDS011;44058;52.898;6.502;2022-10-20T09:08:25;9.98;;;9.07;;
58260;SDS011;44058;52.898;6.502;2022-10-20T09:10:55;10.05;;;9.05;;
58260;SDS011;44058;52.898;6.502;2022-10-20T09:13:23;10.15;;;9.02;;
58260;SDS011;44058;52.898;6.502;2022-10-20T09:18:22;9.75;;;8.85;;
58260;SDS011;44058;52.898;6.502;2022-10-20T09:23:23;11.48;;;8.32;;
58260;SDS011;44058;52.898;6.502;2022-10-20T09:25:54;11.15;;;8.93;;
58260;SDS011;44058;52.898;6.502;2022-10-20T09:28:24;10.57;;;8.52;;
58260;SDS011;44058;52.898;6.502;2022-10-20T09:30:52;9.23;;;8.32;;
58260;SDS011;44058;52.898;6.502;2022-10-20T09:33:39;9.15;;;8.45;;
58260;SDS011;44058;52.898;6.502;2022-10-20T09:36:18;9.77;;;8.70;;
58260;SDS011;44058;52.898;6.502;2022-10-20T09:38:46;9.93;;;8.98;;
58260;SDS011;44058;52.898;6.502;2022-10-20T09:41:17;9.70;;;8.90;;
58260;SDS011;44058;52.898;6.502;2022-10-20T09:46:25;10.63;;;8.50;;
58260;SDS011;44058;52.898;6.502;2022-10-20T09:48:55;9.88;;;8.88;;
58260;SDS011;44058;52.898;6.502;2022-10-20T09:51:22;9.73;;;8.80;;
58260;SDS011;44058;52.898;6.502;2022-10-20T09:56:26;9.48;;;8.57;;
58260;SDS011;44058;52.898;6.502;2022-10-20T09:59:05;11.48;;;8.27;;
58260;SDS011;44058;52.898;6.502;2022-10-20T10:01:56;8.88;;;7.97;;
58260;SDS011;44058;52.898;6.502;2022-10-20T10:04:40;8.75;;;8.05;;
58260;SDS011;44058;52.898;6.502;2022-10-20T10:09:57;8.55;;;7.75;;
58260;SDS011;44058;52.898;6.502;2022-10-20T10:14:59;9.30;;;8.15;;
58260;SDS011;44058;52.898;6.502;2022-10-20T10:17:31;11.38;;;8.38;;
58260;SDS011;44058;52.898;6.502;2022-10-20T10:19:58;9.30;;;7.95;;
58260;SDS011;44058;52.898;6.502;2022-10-20T10:22:31;12.05;;;8.07;;
58260;SDS011;44058;52.898;6.502;2022-10-20T10:24:57;8.63;;;7.82;;
58260;SDS011;44058;52.898;6.502;2022-10-20T10:27:28;9.85;;;8.18;;
58260;SDS011;44058;52.898;6.502;2022-10-20T10:30:41;8.77;;;7.88;;
58260;SDS011;44058;52.898;6.502;2022-10-20T10:32:50;9.05;;;8.13;;
58260;SDS011;44058;52.898;6.502;2022-10-20T10:35:23;8.00;;;7.15;;
58260;SDS011;44058;52.898;6.502;2022-10-20T10:38:04;8.30;;;7.50;;
58260;SDS011;44058;52.898;6.502;2022-10-20T10:40:35;9.10;;;8.10;;
58260;SDS011;44058;52.898;6.502;2022-10-20T10:46:05;8.98;;;8.07;;
58260;SDS011;44058;52.898;6.502;2022-10-20T10:57:04;8.68;;;7.88;;
58260;SDS011;44058;52.898;6.502;2022-10-20T10:59:54;8.65;;;7.85;;
58260;SDS011;44058;52.898;6.502;2022-10-20T11:08:07;9.52;;;8.48;;
58260;SDS011;44058;52.898;6.502;2022-10-20T11:16:54;9.90;;;8.90;;
58260;SDS011;44058;52.898;6.502;2022-10-20T11:27:58;10.00;;;9.00;;
58260;SDS011;44058;52.898;6.502;2022-10-20T11:30:28;10.02;;;9.13;;
58260;SDS011;44058;52.898;6.502;2022-10-20T11:38:26;9.13;;;8.27;;
58260;SDS011;44058;52.898;6.502;2022-10-20T11:41:04;10.20;;;9.02;;
58260;SDS011;44058;52.898;6.502;2022-10-20T11:43:52;9.55;;;8.73;;
58260;SDS011;44058;52.898;6.502;2022-10-20T11:49:04;10.85;;;9.30;;
58260;SDS011;44058;52.898;6.502;2022-10-20T11:57:03;10.45;;;8.75;;
58260;SDS011;44058;52.898;6.502;2022-10-20T12:00:08;10.07;;;9.27;;
58260;SDS011;44058;52.898;6.502;2022-10-20T12:11:45;10.60;;;9.23;;
58260;SDS011;44058;52.898;6.502;2022-10-20T12:14:43;10.43;;;9.18;;
58260;SDS011;44058;52.898;6.502;2022-10-20T12:17:30;10.43;;;9.48;;
58260;SDS011;44058;52.898;6.502;2022-10-20T12:22:44;10.80;;;9.70;;
58260;SDS011;44058;52.898;6.502;2022-10-20T12:31:04;11.43;;;10.27;;
58260;SDS011;44058;52.898;6.502;2022-10-20T12:38:45;12.63;;;11.48;;
58260;SDS011;44058;52.898;6.502;2022-10-20T12:41:25;12.75;;;11.45;;
58260;SDS011;44058;52.898;6.502;2022-10-20T12:43:59;13.10;;;11.85;;
58260;SDS011;44058;52.898;6.502;2022-10-20T12:46:51;12.75;;;11.45;;
58260;SDS011;44058;52.898;6.502;2022-10-20T12:49:36;12.43;;;11.32;;
58260;SDS011;44058;52.898;6.502;2022-10-20T12:52:17;12.65;;;11.45;;
58260;SDS011;44058;52.898;6.502;2022-10-20T12:54:58;12.55;;;11.35;;
58260;SDS011;44058;52.898;6.502;2022-10-20T12:57:37;12.75;;;11.55;;
58260;SDS011;44058;52.898;6.502;2022-10-20T13:11:57;14.98;;;13.57;;
58260;SDS011;44058;52.898;6.502;2022-10-20T13:14:49;13.63;;;12.25;;
58260;SDS011;44058;52.898;6.502;2022-10-20T13:17:44;15.13;;;13.45;;
58260;SDS011;44058;52.898;6.502;2022-10-20T13:23:47;14.73;;;13.43;;
58260;SDS011;44058;52.898;6.502;2022-10-20T13:27:00;15.15;;;13.75;;
58260;SDS011;44058;52.898;6.502;2022-10-20T13:29:48;15.55;;;13.95;;
58260;SDS011;44058;52.898;6.502;2022-10-20T13:35:55;15.05;;;13.57;;
58260;SDS011;44058;52.898;6.502;2022-10-20T13:41:49;15.73;;;14.23;;
58260;SDS011;44058;52.898;6.502;2022-10-20T13:45:04;18.08;;;15.13;;
58260;SDS011;44058;52.898;6.502;2022-10-20T13:50:57;16.73;;;15.02;;
58260;SDS011;44058;52.898;6.502;2022-10-20T13:53:48;16.67;;;15.07;;
58260;SDS011;44058;52.898;6.502;2022-10-20T13:56:38;16.65;;;15.05;;
58260;SDS011;44058;52.898;6.502;2022-10-20T13:59:30;17.30;;;15.70;;
58260;SDS011;44058;52.898;6.502;2022-10-20T14:02:26;17.88;;;16.05;;
58260;SDS011;44058;52.898;6.502;2022-10-20T14:10:56;18.10;;;16.30;;
58260;SDS011;44058;52.898;6.502;2022-10-20T14:13:48;18.85;;;16.67;;
58260;SDS011;44058;52.898;6.502;2022-10-20T14:16:34;20.20;;;17.75;;
58260;SDS011;44058;52.898;6.502;2022-10-20T14:19:22;20.65;;;18.52;;
58260;SDS011;44058;52.898;6.502;2022-10-20T14:22:16;20.10;;;18.02;;
58260;SDS011;44058;52.898;6.502;2022-10-20T14:25:05;19.92;;;18.20;;
58260;SDS011;44058;52.898;6.502;2022-10-20T14:27:54;18.92;;;17.08;;
58260;SDS011;44058;52.898;6.502;2022-10-20T14:30:40;22.30;;;19.58;;
58260;SDS011;44058;52.898;6.502;2022-10-20T14:33:26;19.90;;;17.90;;
58260;SDS011;44058;52.898;6.502;2022-10-20T14:36:23;21.15;;;19.15;;
58260;SDS011;44058;52.898;6.502;2022-10-20T14:39:19;21.58;;;19.45;;
58260;SDS011;44058;52.898;6.502;2022-10-20T14:42:21;21.25;;;19.25;;
58260;SDS011;44058;52.898;6.502;2022-10-20T14:45:15;22.15;;;19.98;;
58260;SDS011;44058;52.898;6.502;2022-10-20T14:48:13;21.65;;;19.55;;
58260;SDS011;44058;52.898;6.502;2022-10-20T14:51:01;21.77;;;19.58;;
58260;SDS011;44058;52.898;6.502;2022-10-20T14:53:47;21.88;;;19.75;;
58260;SDS011;44058;52.898;6.502;2022-10-20T14:56:22;24.73;;;21.50;;
58260;SDS011;44058;52.898;6.502;2022-10-20T14:58:57;25.80;;;22.52;;
58260;SDS011;44058;52.898;6.502;2022-10-20T15:01:31;24.00;;;21.70;;
58260;SDS011;44058;52.898;6.502;2022-10-20T15:07:03;23.45;;;21.08;;
58260;SDS011;44058;52.898;6.502;2022-10-20T15:12:23;24.75;;;22.15;;
58260;SDS011;44058;52.898;6.502;2022-10-20T15:15:13;23.08;;;20.70;;
58260;SDS011;44058;52.898;6.502;2022-10-20T15:25:52;25.63;;;23.00;;
58260;SDS011;44058;52.898;6.502;2022-10-20T15:31:01;27.33;;;24.48;;
58260;SDS011;44058;52.898;6.502;2022-10-20T15:33:30;25.75;;;23.05;;
58260;SDS011;44058;52.898;6.502;2022-10-20T15:35:56;25.80;;;23.10;;
58260;SDS011;44058;52.898;6.502;2022-10-20T15:38:24;25.55;;;22.88;;
58260;SDS011;44058;52.898;6.502;2022-10-20T15:40:50;25.63;;;22.98;;
58260;SDS011;44058;52.898;6.502;2022-10-20T15:43:16;29.50;;;26.52;;
58260;SDS011;44058;52.898;6.502;2022-10-20T15:45:44;25.42;;;22.88;;
58260;SDS011;44058;52.898;6.502;2022-10-20T15:48:11;26.92;;;23.92;;
58260;SDS011;44058;52.898;6.502;2022-10-20T15:50:37;24.73;;;22.05;;
58260;SDS011;44058;52.898;6.502;2022-10-20T15:53:05;25.17;;;22.60;;
58260;SDS011;44058;52.898;6.502;2022-10-20T15:55:31;25.98;;;23.23;;
58260;SDS011;44058;52.898;6.502;2022-10-20T15:57:59;26.95;;;24.00;;
58260;SDS011;44058;52.898;6.502;2022-10-20T16:00:25;30.60;;;25.08;;
58260;SDS011;44058;52.898;6.502;2022-10-20T16:02:52;25.02;;;22.35;;
58260;SDS011;44058;52.898;6.502;2022-10-20T16:05:18;26.67;;;23.77;;
58260;SDS011;44058;52.898;6.502;2022-10-20T16:07:47;27.80;;;24.83;;
58260;SDS011;44058;52.898;6.502;2022-10-20T16:10:14;23.83;;;21.30;;
58260;SDS011;44058;52.898;6.502;2022-10-20T16:12:40;26.63;;;24.00;;
58260;SDS011;44058;52.898;6.502;2022-10-20T16:15:07;26.05;;;23.25;;
58260;SDS011;44058;52.898;6.502;2022-10-20T16:17:34;28.33;;;24.50;;
58260;SDS011;44058;52.898;6.502;2022-10-20T16:20:00;25.88;;;23.15;;
58260;SDS011;44058;52.898;6.502;2022-10-20T16:22:26;27.13;;;24.13;;
58260;SDS011;44058;52.898;6.502;2022-10-20T16:24:52;26.77;;;23.13;;
58260;SDS011;44058;52.898;6.502;2022-10-20T16:27:19;29.50;;;25.08;;
58260;SDS011;44058;52.898;6.502;2022-10-20T16:29:45;29.58;;;26.23;;
58260;SDS011;44058;52.898;6.502;2022-10-20T16:32:11;28.08;;;24.85;;
58260;SDS011;44058;52.898;6.502;2022-10-20T16:34:37;27.48;;;24.45;;
58260;SDS011;44058;52.898;6.502;2022-10-20T16:37:02;28.17;;;25.17;;
58260;SDS011;44058;52.898;6.502;2022-10-20T16:39:28;27.33;;;24.50;;
58260;SDS011;44058;52.898;6.502;2022-10-20T16:41:54;28.95;;;25.42;;
58260;SDS011;44058;52.898;6.502;2022-10-20T16:44:19;27.77;;;23.98;;
58260;SDS011;44058;52.898;6.502;2022-10-20T16:46:45;26.40;;;23.50;;
58260;SDS011;44058;52.898;6.502;2022-10-20T16:49:11;28.52;;;24.30;;
58260;SDS011;44058;52.898;6.502;2022-10-20T16:51:36;29.77;;;24.73;;
58260;SDS011;44058;52.898;6.502;2022-10-20T16:54:03;31.20;;;25.40;;
58260;SDS011;44058;52.898;6.502;2022-10-20T16:56:29;30.17;;;25.17;;
58260;SDS011;44058;52.898;6.502;2022-10-20T16:58:54;30.75;;;25.90;;
58260;SDS011;44058;52.898;6.502;2022-10-20T17:01:20;29.83;;;25.45;;
58260;SDS011;44058;52.898;6.502;2022-10-20T17:03:50;29.80;;;26.10;;
58260;SDS011;44058;52.898;6.502;2022-10-20T17:06:18;29.38;;;25.13;;
58260;SDS011;44058;52.898;6.502;2022-10-20T17:08:45;27.58;;;24.58;;
58260;SDS011;44058;52.898;6.502;2022-10-20T17:11:13;27.10;;;24.20;;
58260;SDS011;44058;52.898;6.502;2022-10-20T17:13:43;27.98;;;23.83;;
58260;SDS011;44058;52.898;6.502;2022-10-20T17:16:10;27.25;;;24.48;;
58260;SDS011;44058;52.898;6.502;2022-10-20T17:18:38;27.27;;;24.38;;
58260;SDS011;44058;52.898;6.502;2022-10-20T17:21:04;28.27;;;25.23;;
58260;SDS011;44058;52.898;6.502;2022-10-20T17:23:31;28.52;;;24.88;;
58260;SDS011;44058;52.898;6.502;2022-10-20T17:26:01;30.38;;;26.40;;
58260;SDS011;44058;52.898;6.502;2022-10-20T17:28:28;27.08;;;24.13;;
58260;SDS011;44058;52.898;6.502;2022-10-20T17:30:55;28.70;;;24.38;;